Time;durP1;ratioP1;P1;durP2;ratioP2;P2;SDS_P1;SDS_P2;PMS_P1;PMS_P2;Temp;Humidity;BMP_temperature;BMP_pressure;BME280_temperature;BME280_humidity;BME280_pressure;Samples;Min_cycle;Max_cycle;Signal;HPM_P1;HPM_P2
2021/08/14 00:00:21;;;;;;;1999.90;999.90;;;20.10;99.90;;;;;;5058508;28;20193;-81
2021/08/14 00:02:46;;;;;;;1999.90;999.90;;;20.10;99.90;;;;;;5058213;28;20532;-81
2021/08/14 00:05:12;;;;;;;1999.90;999.90;;;20.10;99.90;;;;;;5058111;28;20225;-81
2021/08/14 00:07:38;;;;;;;1999.90;999.90;;;20.10;99.90;;;;;;5058447;28;20184;-81
2021/08/14 00:10:05;;;;;;;1999.90;999.90;;;20.10;99.90;;;;;;5057710;28;20163;-81
2021/08/14 00:12:31;;;;;;;1999.90;999.90;;;20.00;99.90;;;;;;5057032;28;20165;-81
2021/08/14 00:14:57;;;;;;;1999.90;999.90;;;20.00;99.90;;;;;;5057935;28;20806;-81
2021/08/14 00:17:22;;;;;;;1999.90;999.90;;;20.00;99.90;;;;;;5057888;28;20234;-81
2021/08/14 00:19:48;;;;;;;1999.90;999.90;;;20.00;99.90;;;;;;5040108;28;20161;-81
2021/08/14 00:22:14;;;;;;;1999.90;999.90;;;20.00;99.90;;;;;;5058461;28;20230;-81
2021/08/14 00:24:39;;;;;;;1999.90;999.90;;;19.90;99.90;;;;;;5058062;28;20192;-81
2021/08/14 00:27:05;;;;;;;1999.90;999.90;;;19.90;99.90;;;;;;5057857;28;20195;-81
2021/08/14 00:29:31;;;;;;;1999.90;999.90;;;19.90;99.90;;;;;;5057478;28;20175;-81
2021/08/14 00:31:56;;;;;;;1999.90;999.90;;;19.80;99.90;;;;;;5058067;28;20198;-81
2021/08/14 00:34:22;;;;;;;1999.90;999.90;;;19.80;99.90;;;;;;5056768;28;20186;-81
2021/08/14 00:36:48;;;;;;;1999.90;999.90;;;19.80;99.90;;;;;;5057292;28;20673;-81
2021/08/14 00:39:13;;;;;;;1999.90;999.90;;;19.80;99.90;;;;;;5057716;28;20161;-81
2021/08/14 00:41:39;;;;;;;1999.90;999.90;;;19.80;99.90;;;;;;5057812;28;20212;-81
2021/08/14 00:44:05;;;;;;;1999.90;999.90;;;19.80;99.90;;;;;;5057572;28;20190;-81
2021/08/14 00:46:32;;;;;;;1999.90;999.90;;;19.70;99.90;;;;;;5057308;28;20180;-81
2021/08/14 00:48:59;;;;;;;1999.90;999.90;;;19.70;99.90;;;;;;5039972;28;20442;-81
2021/08/14 00:51:26;;;;;;;1999.90;999.90;;;19.70;99.90;;;;;;5039090;28;20399;-81
2021/08/14 00:53:52;;;;;;;1999.90;999.90;;;19.70;99.90;;;;;;5056467;28;20410;-81
2021/08/14 00:56:21;;;;;;;1999.90;999.90;;;19.70;99.90;;;;;;5057489;28;20505;-81
2021/08/14 00:58:50;;;;;;;1999.90;999.90;;;19.70;99.90;;;;;;5039195;28;20443;-81
2021/08/14 01:01:17;;;;;;;1999.90;999.90;;;19.60;99.90;;;;;;5056767;28;20401;-81
2021/08/14 01:03:43;;;;;;;1999.90;999.90;;;19.50;99.90;;;;;;5057225;28;20518;-81
2021/08/14 01:06:09;;;;;;;1999.90;999.90;;;19.50;99.90;;;;;;5056782;28;20762;-81
2021/08/14 01:08:34;;;;;;;1999.90;999.90;;;19.50;99.90;;;;;;5039302;28;20414;-81
2021/08/14 01:11:00;;;;;;;1999.90;999.90;;;19.50;99.90;;;;;;5056925;28;20509;-81
2021/08/14 01:13:26;;;;;;;1999.90;999.90;;;19.40;99.90;;;;;;5039257;28;20179;-81
2021/08/14 01:15:52;;;;;;;1999.90;999.90;;;19.40;99.90;;;;;;5056691;28;20578;-81
2021/08/14 01:18:18;;;;;;;1999.90;999.90;;;19.40;99.90;;;;;;5056784;28;20192;-81
2021/08/14 01:20:46;;;;;;;1999.90;999.90;;;19.40;99.90;;;;;;5056941;28;20415;-81
2021/08/14 01:23:12;;;;;;;1999.90;999.90;;;19.40;99.90;;;;;;5056649;28;20416;-81
2021/08/14 01:25:39;;;;;;;1999.90;999.90;;;19.30;99.90;;;;;;5056890;28;20445;-81
2021/08/14 01:28:05;;;;;;;1999.90;999.90;;;19.30;99.90;;;;;;5038741;28;21004;-81
2021/08/14 01:30:31;;;;;;;1999.90;999.90;;;19.30;99.90;;;;;;5056986;28;20410;-81
2021/08/14 01:32:57;;;;;;;1999.90;999.90;;;19.30;99.90;;;;;;5056155;28;20402;-81
2021/08/14 01:35:23;;;;;;;1999.90;999.90;;;19.20;99.90;;;;;;5038667;28;20200;-81
2021/08/14 01:37:48;;;;;;;1999.90;999.90;;;19.30;99.90;;;;;;5056517;28;20627;-81
2021/08/14 01:40:14;;;;;;;1999.90;999.90;;;19.30;99.90;;;;;;5056403;28;20166;-81
2021/08/14 01:42:40;;;;;;;1999.90;999.90;;;19.20;99.90;;;;;;5056127;28;20189;-81
2021/08/14 01:45:07;;;;;;;1999.90;999.90;;;19.20;99.90;;;;;;5056545;28;20183;-81
2021/08/14 01:47:36;;;;;;;1999.90;999.90;;;19.20;99.90;;;;;;5056025;28;20181;-81
2021/08/14 01:50:01;;;;;;;1999.90;999.90;;;19.20;99.90;;;;;;5056055;28;20400;-81
2021/08/14 01:52:27;;;;;;;1999.90;999.90;;;19.10;99.90;;;;;;5056718;28;20468;-81
2021/08/14 01:54:53;;;;;;;1999.90;999.90;;;19.10;99.90;;;;;;5038521;28;20256;-81
2021/08/14 01:57:18;;;;;;;1999.90;999.90;;;19.10;99.90;;;;;;5038510;28;20219;-81
2021/08/14 01:59:44;;;;;;;1999.90;999.90;;;19.10;99.90;;;;;;5056185;28;20172;-81
2021/08/14 02:02:10;;;;;;;1999.90;999.90;;;19.00;99.90;;;;;;5038265;28;20210;-81
2021/08/14 02:04:36;;;;;;;1999.90;999.90;;;19.00;99.90;;;;;;5055703;28;20485;-81
2021/08/14 02:07:02;;;;;;;1999.90;999.90;;;19.00;99.90;;;;;;5037832;28;20443;-81
2021/08/14 02:09:28;;;;;;;1999.90;999.90;;;18.90;99.90;;;;;;5037969;28;20195;-81
2021/08/14 02:11:54;;;;;;;1999.90;999.90;;;18.90;99.90;;;;;;5055953;28;20395;-81
2021/08/14 02:14:19;;;;;;;1999.90;999.90;;;18.90;99.90;;;;;;5056170;28;20414;-81
2021/08/14 02:16:45;;;;;;;1999.90;999.90;;;18.90;99.90;;;;;;5056168;28;20208;-81
2021/08/14 02:19:11;;;;;;;1999.90;999.90;;;18.90;99.90;;;;;;5055806;28;20693;-81
2021/08/14 02:21:36;;;;;;;1999.90;999.90;;;18.80;99.90;;;;;;5037982;28;20168;-81
2021/08/14 02:24:02;;;;;;;1999.90;999.90;;;18.90;99.90;;;;;;5038003;28;20628;-81
2021/08/14 02:26:28;;;;;;;1999.90;999.90;;;18.80;99.90;;;;;;5055599;28;20210;-81
2021/08/14 02:28:54;;;;;;;1999.90;999.90;;;18.80;99.90;;;;;;5055429;28;20403;-81
2021/08/14 02:31:20;;;;;;;1999.90;999.90;;;18.80;99.90;;;;;;5055544;28;20227;-81
2021/08/14 02:33:46;;;;;;;1999.90;999.90;;;18.80;99.90;;;;;;5056122;28;20403;-81
2021/08/14 02:36:13;;;;;;;1999.90;999.90;;;18.80;99.90;;;;;;5037925;28;20168;-81
2021/08/14 02:38:39;;;;;;;1999.90;999.90;;;18.80;99.90;;;;;;5055317;28;20404;-81
2021/08/14 02:41:06;;;;;;;1999.90;999.90;;;18.80;99.90;;;;;;5055848;28;20964;-81
2021/08/14 02:43:32;;;;;;;1999.90;999.90;;;18.70;99.90;;;;;;5037389;28;20458;-81
2021/08/14 02:46:01;;;;;;;1999.90;999.90;;;18.70;99.90;;;;;;5037370;28;20404;-81
2021/08/14 02:48:30;;;;;;;1999.90;999.90;;;18.70;99.90;;;;;;5055500;28;20240;-81
2021/08/14 02:50:56;;;;;;;1999.90;999.90;;;18.70;99.90;;;;;;5037439;28;20411;-81
2021/08/14 02:53:23;;;;;;;1999.90;999.90;;;18.70;99.90;;;;;;5037685;28;20443;-81
2021/08/14 02:55:49;;;;;;;1999.90;999.90;;;18.60;99.90;;;;;;5037836;28;20782;-81
2021/08/14 02:58:15;;;;;;;1999.90;999.90;;;18.60;99.90;;;;;;5037593;28;20437;-81
2021/08/14 03:00:41;;;;;;;1999.90;999.90;;;18.60;99.90;;;;;;5055816;28;20399;-81
2021/08/14 03:03:06;;;;;;;1999.90;999.90;;;18.60;99.90;;;;;;5037509;28;20707;-81
2021/08/14 03:05:32;;;;;;;1999.90;999.90;;;18.50;99.90;;;;;;5037718;28;20200;-81
2021/08/14 03:07:58;;;;;;;1999.90;999.90;;;18.50;99.90;;;;;;5055216;28;20181;-81
2021/08/14 03:10:24;;;;;;;1999.90;999.90;;;18.50;99.90;;;;;;5054951;28;20165;-81
2021/08/14 03:12:50;;;;;;;1999.90;999.90;;;18.50;99.90;;;;;;5037367;28;20180;-81
2021/08/14 03:15:15;;;;;;;1999.90;999.90;;;18.50;99.90;;;;;;5055366;28;20763;-81
2021/08/14 03:17:41;;;;;;;1999.90;999.90;;;18.50;99.90;;;;;;5058736;28;20183;-81
2021/08/14 03:20:08;;;;;;;1999.90;999.90;;;18.50;99.90;;;;;;5059068;28;20169;-81
2021/08/14 03:22:34;;;;;;;1999.90;999.90;;;18.40;99.90;;;;;;5058622;28;20256;-81
2021/08/14 03:25:00;;;;;;;1999.90;999.90;;;18.50;99.90;;;;;;5040792;28;20450;-81
2021/08/14 03:27:25;;;;;;;1999.90;999.90;;;18.40;99.90;;;;;;5058644;28;20418;-81
2021/08/14 03:29:51;;;;;;;1999.90;999.90;;;18.40;99.90;;;;;;5041007;28;20171;-81
2021/08/14 03:32:17;;;;;;;1999.90;999.90;;;18.40;99.90;;;;;;5040771;28;20357;-81
2021/08/14 03:34:43;;;;;;;1999.90;999.90;;;18.40;99.90;;;;;;5058676;28;20175;-81
2021/08/14 03:37:08;;;;;;;1999.90;999.90;;;18.40;99.90;;;;;;5058790;28;20424;-81
2021/08/14 03:39:34;;;;;;;1999.90;999.90;;;18.30;99.90;;;;;;5058752;28;20164;-81
2021/08/14 03:42:01;;;;;;;1999.90;999.90;;;18.30;99.90;;;;;;5040390;28;20180;-81
2021/08/14 03:45:25;;;;;;;;;;;;;;;;;;;;;
2021/08/14 03:55:59;;;;;;;;;;;;;;;;;;;;;
2021/08/14 03:59:41;;;;;;;1999.90;999.90;;;18.20;99.90;;;;;;4923909;29;20507;-85
2021/08/14 04:20:34;;;;;;;1999.90;999.90;;;18.00;99.90;;;;;;4820603;29;20436;-85
2021/08/14 04:23:49;;;;;;;1999.90;999.90;;;18.00;99.90;;;;;;4824972;29;20428;-85
2021/08/14 04:32:49;;;;;;;;;;;;;;;;;;;;;
2021/08/14 05:02:54;;;;;;;;;;;;;;;;;;;;;
2021/08/14 05:16:37;;;;;;;1999.90;999.90;;;18.00;99.90;;;;;;4940767;29;20438;-85
2021/08/14 05:19:22;;;;;;;1999.90;999.90;;;18.10;99.90;;;;;;4926223;29;20408;-86
2021/08/14 05:22:51;;;;;;;;;;;;;;;;;;;;;
2021/08/14 05:38:05;;;;;;;1999.90;999.90;;;18.30;99.90;;;;;;4873022;29;20428;-85
2021/08/14 05:42:26;;;;;;;1999.90;999.90;;;18.30;99.90;;;;;;4911846;28;20411;-84
2021/08/14 05:45:02;;;;;;;1999.90;999.90;;;18.40;99.90;;;;;;4958029;28;20539;-84
2021/08/14 05:51:59;;;;;;;1999.90;999.90;;;18.50;99.90;;;;;;4882146;28;20459;-84
2021/08/14 05:55:20;;;;;;;1999.90;999.90;;;18.50;99.90;;;;;;5026705;28;20411;-84
2021/08/14 05:58:25;;;;;;;1999.90;999.90;;;18.50;99.90;;;;;;5009867;28;20441;-84
2021/08/14 06:11:46;;;;;;;1999.90;999.90;;;18.60;99.90;;;;;;4932322;29;20529;-84
2021/08/14 06:18:40;;;;;;;;;;;;;;;;;;;;;
2021/08/14 06:32:04;;;;;;;1999.90;999.90;;;18.80;99.90;;;;;;4993219;28;20778;-84
2021/08/14 06:39:14;;;;;;;1999.90;999.90;;;18.80;99.90;;;;;;5064880;22;20509;-86
2021/08/14 06:42:52;;;;;;;;;;;;;;;;;;;;;
2021/08/14 06:46:08;;;;;;;1999.90;999.90;;;18.80;99.90;;;;;;4922764;29;20552;-85
2021/08/14 06:49:16;;;;;;;1999.90;999.90;;;18.80;99.90;;;;;;4898418;29;20866;-84
2021/08/14 06:52:35;;;;;;;;;;;;;;;;;;;;;
2021/08/14 07:39:53;;;;;;;;;;;;;;;;;;;;;
2021/08/14 07:53:29;;;;;;;1999.90;999.90;;;19.40;99.90;;;;;;4965851;28;20424;-85
2021/08/14 08:03:12;;;;;;;;;;;;;;;;;;;;;
2021/08/14 08:31:42;;;;;;;1999.90;999.90;;;20.00;99.90;;;;;;5045251;28;20480;-86
2021/08/14 08:34:08;;;;;;;1999.90;999.90;;;20.10;99.90;;;;;;5048389;28;20413;-86
2021/08/14 08:36:34;;;;;;;1999.90;999.90;;;20.10;99.90;;;;;;5043535;28;20432;-86
2021/08/14 08:39:07;;;;;;;1999.90;999.90;;;20.10;99.90;;;;;;5009364;28;20824;-86
2021/08/14 08:41:33;;;;;;;1999.90;999.90;;;20.20;99.90;;;;;;5010366;28;20967;-86
2021/08/14 08:43:59;;;;;;;1999.90;999.90;;;20.20;99.90;;;;;;5026407;28;20955;-86
2021/08/14 08:46:27;;;;;;;1999.90;999.90;;;20.30;99.90;;;;;;5025510;28;20431;-86
2021/08/14 08:48:53;;;;;;;1999.90;999.90;;;20.30;99.90;;;;;;5027260;28;20464;-85
2021/08/14 08:51:24;;;;;;;1999.90;999.90;;;20.40;99.90;;;;;;5027526;28;20409;-86
2021/08/14 08:53:50;;;;;;;1999.90;999.90;;;20.40;99.90;;;;;;5028276;28;20785;-85
2021/08/14 08:56:16;;;;;;;1999.90;999.90;;;20.40;99.90;;;;;;5027184;28;20444;-85
2021/08/14 08:58:42;;;;;;;1999.90;999.90;;;20.50;99.90;;;;;;5026133;28;20971;-85
2021/08/14 09:01:07;;;;;;;1999.90;999.90;;;20.50;99.90;;;;;;5008656;28;20178;-86
2021/08/14 09:03:33;;;;;;;1999.90;999.90;;;20.50;99.90;;;;;;5009359;28;20185;-85
2021/08/14 09:05:59;;;;;;;1999.90;999.90;;;20.60;99.90;;;;;;5009677;28;20175;-85
2021/08/14 09:08:25;;;;;;;1999.90;999.90;;;20.70;99.90;;;;;;5006369;28;20219;-85
2021/08/14 09:11:06;;;;;;;1999.90;999.90;;;20.80;99.90;;;;;;5024710;28;20168;-85
2021/08/14 09:13:32;;;;;;;1999.90;999.90;;;20.80;99.90;;;;;;5025108;28;20390;-85
2021/08/14 09:16:17;;;;;;;1999.90;999.90;;;20.80;99.90;;;;;;5025167;28;20471;-85
2021/08/14 09:18:57;;;;;;;1999.90;999.90;;;20.90;98.80;;;;;;5025323;28;20181;-85
2021/08/14 09:21:37;;;;;;;1999.90;999.90;;;21.00;99.90;;;;;;5025854;28;20409;-85
2021/08/14 09:24:05;;;;;;;1999.90;999.90;;;21.00;94.90;;;;;;5005582;28;20454;-86
2021/08/14 09:26:46;;;;;;;1999.90;999.90;;;21.10;96.60;;;;;;5005756;28;20439;-85
2021/08/14 09:29:14;;;;;;;1999.90;999.90;;;21.20;96.50;;;;;;5005784;28;20433;-86
2021/08/14 09:31:51;;;;;;;1999.90;999.90;;;21.30;95.30;;;;;;5023343;28;20786;-86
2021/08/14 09:34:23;;;;;;;1999.90;999.90;;;21.40;94.00;;;;;;5022737;28;20418;-86
2021/08/14 09:37:07;;;;;;;1999.90;999.90;;;21.50;90.80;;;;;;5005728;28;20457;-86
2021/08/14 09:39:51;;;;;;;1999.90;999.90;;;21.60;91.20;;;;;;5022780;28;20539;-86
2021/08/14 09:42:17;;;;;;;1999.90;999.90;;;21.70;89.80;;;;;;5003902;28;20409;-86
2021/08/14 09:44:42;;;;;;;1999.90;999.90;;;21.70;85.20;;;;;;5088161;22;20499;-81
2021/08/14 09:47:34;;;;;;;1999.90;999.90;;;21.80;90.50;;;;;;5017350;28;20185;-81
2021/08/14 09:50:00;;;;;;;1999.90;999.90;;;21.90;88.80;;;;;;5036075;28;20180;-81
2021/08/14 09:52:26;;;;;;;1999.90;999.90;;;22.10;84.60;;;;;;5036183;28;20407;-81
2021/08/14 09:54:56;;;;;;;1999.90;999.90;;;22.10;82.30;;;;;;5018867;28;20232;-81
2021/08/14 09:57:23;;;;;;;1999.90;999.90;;;22.20;81.60;;;;;;5018576;28;20518;-81
2021/08/14 09:59:50;;;;;;;1999.90;999.90;;;22.30;80.70;;;;;;5036320;28;20430;-80
2021/08/14 10:02:25;;;;;;;1999.90;999.90;;;22.40;80.00;;;;;;5035791;28;20764;-80
2021/08/14 10:04:52;;;;;;;1999.90;999.90;;;22.40;82.20;;;;;;5036123;28;20969;-80
2021/08/14 10:07:18;;;;;;;1999.90;999.90;;;22.50;72.40;;;;;;5036087;28;20431;-80
2021/08/14 10:09:47;;;;;;;1999.90;999.90;;;22.70;69.90;;;;;;5001356;28;20926;-80
2021/08/14 10:12:15;;;;;;;1999.90;999.90;;;22.80;72.90;;;;;;5035536;28;20411;-80
2021/08/14 10:14:43;;;;;;;1999.90;999.90;;;23.10;75.90;;;;;;5034818;28;20407;-80
2021/08/14 10:17:09;;;;;;;1999.90;999.90;;;23.20;68.20;;;;;;5035152;28;20942;-80
2021/08/14 10:19:36;;;;;;;1999.90;999.90;;;23.20;70.90;;;;;;5035629;28;20412;-81
2021/08/14 10:22:07;;;;;;;1999.90;999.90;;;23.30;69.10;;;;;;5034397;28;20404;-81
2021/08/14 10:24:44;;;;;;;1999.90;999.90;;;23.40;58.60;;;;;;5016666;28;21024;-80
2021/08/14 10:27:16;;;;;;;1999.90;999.90;;;23.60;65.00;;;;;;5037199;28;20423;-80
2021/08/14 10:29:51;;;;;;;1999.90;999.90;;;23.80;67.10;;;;;;5020796;28;20428;-80
2021/08/14 10:32:34;;;;;;;1999.90;999.90;;;23.90;51.00;;;;;;5038406;28;20807;-80
2021/08/14 10:35:12;;;;;;;1999.90;999.90;;;24.10;61.70;;;;;;5020328;28;20408;-80
2021/08/14 10:37:40;;;;;;;1999.90;999.90;;;24.40;49.00;;;;;;5020113;28;20424;-80
2021/08/14 10:40:08;;;;;;;1999.90;999.90;;;24.60;37.10;;;;;;5020946;28;20404;-80
2021/08/14 10:42:53;;;;;;;1999.90;999.90;;;24.70;32.50;;;;;;5038207;28;20408;-80
2021/08/14 10:45:21;;;;;;;1999.90;999.90;;;24.90;30.20;;;;;;5037796;28;20538;-80
2021/08/14 10:47:49;;;;;;;1999.90;999.90;;;25.00;43.10;;;;;;5037731;28;20470;-81
2021/08/14 10:50:31;;;;;;;1999.90;999.90;;;25.20;26.20;;;;;;5020534;28;20413;-80
2021/08/14 10:53:11;;;;;;;1999.90;999.90;;;25.30;28.90;;;;;;5020112;28;20404;-81
2021/08/14 10:55:42;;;;;;;1999.90;999.90;;;25.40;25.30;;;;;;5038071;28;20775;-81
2021/08/14 10:58:30;;;;;;;1999.90;999.90;;;25.30;23.10;;;;;;5037984;28;20428;-81
2021/08/14 11:01:21;;;;;;;1999.90;999.90;;;25.40;20.00;;;;;;5038166;28;20423;-80
2021/08/14 11:03:47;;;;;;;1999.90;999.90;;;25.60;20.00;;;;;;5026517;28;20447;-80
2021/08/14 11:06:27;;;;;;;1999.90;999.90;;;25.90;19.40;;;;;;5037462;28;20413;-80
2021/08/14 11:09:18;;;;;;;1999.90;999.90;;;26.20;12.80;;;;;;5037838;28;20556;-81
2021/08/14 11:11:57;;;;;;;1999.90;999.90;;;26.40;12.80;;;;;;5038072;28;20732;-80
2021/08/14 11:14:39;;;;;;;1999.90;999.90;;;26.50;6.40;;;;;;5019993;28;20984;-81
2021/08/14 11:17:07;;;;;;;1999.90;999.90;;;26.40;6.50;;;;;;5019456;28;20466;-80
2021/08/14 11:19:44;;;;;;;1999.90;999.90;;;26.60;10.40;;;;;;5037582;28;20410;-81
2021/08/14 11:22:25;;;;;;;1999.90;999.90;;;26.70;12.50;;;;;;5019031;28;20414;-80
2021/08/14 11:24:54;;;;;;;1999.90;999.90;;;26.80;10.00;;;;;;5019170;28;20450;-80
2021/08/14 11:27:21;;;;;;;1999.90;999.90;;;26.80;4.90;;;;;;5037093;28;20446;-80
2021/08/14 11:29:49;;;;;;;1999.90;999.90;;;26.80;2.60;;;;;;5037473;28;20894;-81
2021/08/14 11:32:16;;;;;;;1999.90;999.90;;;26.80;1.00;;;;;;5019141;28;20408;-81
2021/08/14 11:34:44;;;;;;;1999.90;999.90;;;26.70;1.00;;;;;;5019112;28;20822;-80
2021/08/14 11:37:11;;;;;;;1999.90;999.90;;;26.60;1.00;;;;;;5036588;28;20435;-81
2021/08/14 11:39:38;;;;;;;1999.90;999.90;;;26.30;1.00;;;;;;5019339;28;20415;-81
2021/08/14 11:42:04;;;;;;;1999.90;999.90;;;26.10;1.00;;;;;;5037034;28;20399;-80
2021/08/14 11:44:33;;;;;;;1999.90;999.90;;;26.20;1.00;;;;;;5036749;28;20480;-81
2021/08/14 11:47:03;;;;;;;1999.90;999.90;;;26.10;1.00;;;;;;5036957;28;20463;-80
2021/08/14 11:49:29;;;;;;;1999.90;999.90;;;25.90;1.00;;;;;;5036704;28;20403;-80
2021/08/14 11:52:04;;;;;;;1999.90;999.90;;;26.20;1.00;;;;;;5019232;28;20963;-81
2021/08/14 11:54:33;;;;;;;1999.90;999.90;;;26.40;1.00;;;;;;5019293;28;20407;-81
2021/08/14 11:57:12;;;;;;;1999.90;999.90;;;26.70;1.00;;;;;;5037587;28;20428;-81
2021/08/14 11:59:38;;;;;;;1999.90;999.90;;;27.00;1.00;;;;;;5037064;28;20395;-80
2021/08/14 12:02:05;;;;;;;1999.90;999.90;;;27.30;1.00;;;;;;5019101;28;20416;-80
2021/08/14 12:04:30;;;;;;;1999.90;999.90;;;27.30;1.00;;;;;;5037148;28;20846;-81
2021/08/14 12:06:58;;;;;;;1999.90;999.90;;;27.30;1.00;;;;;;5036347;28;20428;-80
2021/08/14 12:09:24;;;;;;;1999.90;999.90;;;27.50;1.00;;;;;;5018926;28;20166;-81
2021/08/14 12:11:54;;;;;;;1999.90;999.90;;;27.40;1.00;;;;;;5036455;28;20467;-80
2021/08/14 12:14:22;;;;;;;1999.90;999.90;;;27.30;1.00;;;;;;5036642;28;20507;-81
2021/08/14 12:16:58;;;;;;;1999.90;999.90;;;27.40;1.00;;;;;;5018453;28;20432;-80
2021/08/14 12:19:24;;;;;;;1999.90;999.90;;;27.50;1.00;;;;;;5036354;28;20387;-80
2021/08/14 12:22:06;;;;;;;1999.90;999.90;;;27.50;1.00;;;;;;5036269;28;20806;-81
2021/08/14 12:24:32;;;;;;;1999.90;999.90;;;27.50;1.00;;;;;;5036161;28;20182;-81
2021/08/14 12:26:57;;;;;;;1999.90;999.90;;;27.30;1.00;;;;;;5035955;28;20973;-80
2021/08/14 12:29:23;;;;;;;1999.90;999.90;;;27.40;1.00;;;;;;5036166;28;20158;-80
2021/08/14 12:31:51;;;;;;;1999.90;999.90;;;27.50;1.00;;;;;;5036207;28;20162;-81
2021/08/14 12:34:35;;;;;;;1999.90;999.90;;;27.50;1.00;;;;;;5036149;28;20470;-81
2021/08/14 12:37:10;;;;;;;1999.90;999.90;;;27.50;1.00;;;;;;5035877;28;20423;-78
2021/08/14 12:40:05;;;;;;;1999.90;999.90;;;27.30;1.00;;;;;;5035682;28;20415;-81
2021/08/14 12:42:32;;;;;;;1999.90;999.90;;;27.20;1.00;;;;;;5015004;28;20416;-81
2021/08/14 12:45:13;;;;;;;1999.90;999.90;;;27.30;1.00;;;;;;5018239;28;20549;-81
2021/08/14 12:47:39;;;;;;;1999.90;999.90;;;27.10;1.00;;;;;;5035728;28;20830;-81
2021/08/14 12:50:12;;;;;;;1999.90;999.90;;;27.30;1.00;;;;;;5034796;28;20883;-81
2021/08/14 12:52:52;;;;;;;1999.90;999.90;;;27.50;1.00;;;;;;5017893;28;20487;-81
2021/08/14 12:55:28;;;;;;;1999.90;999.90;;;27.60;1.00;;;;;;5018524;28;20409;-80
2021/08/14 12:57:56;;;;;;;1999.90;999.90;;;27.50;1.00;;;;;;5035684;28;20430;-81
2021/08/14 13:00:21;;;;;;;1999.90;999.90;;;27.40;1.00;;;;;;5035205;28;20462;-80
2021/08/14 13:02:49;;;;;;;1999.90;999.90;;;27.50;1.00;;;;;;5018750;28;20405;-81
2021/08/14 13:05:15;;;;;;;1999.90;999.90;;;27.60;1.00;;;;;;5035813;28;20186;-80
2021/08/14 13:07:41;;;;;;;1999.90;999.90;;;27.70;1.00;;;;;;5035465;28;20466;-81
2021/08/14 13:10:07;;;;;;;1999.90;999.90;;;27.70;1.00;;;;;;5017557;28;20165;-81
2021/08/14 13:12:34;;;;;;;1999.90;999.90;;;28.00;1.00;;;;;;5017675;28;20229;-80
2021/08/14 13:15:00;;;;;;;1999.90;999.90;;;28.20;1.00;;;;;;5035233;28;20169;-80
2021/08/14 13:17:26;;;;;;;1999.90;999.90;;;28.30;1.00;;;;;;5035643;28;20907;-80
2021/08/14 13:19:51;;;;;;;1999.90;999.90;;;28.40;1.00;;;;;;5035181;28;20172;-80
2021/08/14 13:22:17;;;;;;;1999.90;999.90;;;28.40;1.00;;;;;;5035331;28;20184;-80
2021/08/14 13:24:42;;;;;;;1999.90;999.90;;;28.50;1.00;;;;;;5016902;28;20197;-78
2021/08/14 13:27:08;;;;;;;1999.90;999.90;;;28.50;1.00;;;;;;5016598;28;20684;-78
2021/08/14 13:29:34;;;;;;;1999.90;999.90;;;28.60;1.00;;;;;;5034802;28;20633;-78
2021/08/14 13:31:59;;;;;;;1999.90;999.90;;;28.60;1.00;;;;;;5016948;28;20197;-78
2021/08/14 13:34:25;;;;;;;1999.90;999.90;;;28.60;1.00;;;;;;5034322;28;20195;-78
2021/08/14 13:36:51;;;;;;;1999.90;999.90;;;28.50;1.00;;;;;;5034211;28;20179;-78
2021/08/14 13:39:16;;;;;;;1999.90;999.90;;;28.40;1.00;;;;;;5034207;28;20176;-78
2021/08/14 13:41:42;;;;;;;1999.90;999.90;;;28.40;1.00;;;;;;5034607;28;20173;-78
2021/08/14 13:44:08;;;;;;;1999.90;999.90;;;28.20;1.00;;;;;;5034073;28;20197;-78
2021/08/14 13:46:34;;;;;;;1999.90;999.90;;;28.10;1.00;;;;;;5017595;28;20207;-78
2021/08/14 13:48:59;;;;;;;1999.90;999.90;;;28.10;1.00;;;;;;5034189;28;20166;-78
2021/08/14 13:51:25;;;;;;;1999.90;999.90;;;28.00;1.00;;;;;;5034192;28;20400;-78
2021/08/14 13:53:51;;;;;;;1999.90;999.90;;;28.00;1.00;;;;;;5034044;28;20157;-78
2021/08/14 13:56:16;;;;;;;1999.90;999.90;;;28.00;1.00;;;;;;5016026;28;20568;-77
2021/08/14 13:58:42;;;;;;;1999.90;999.90;;;28.10;1.00;;;;;;5016013;28;20169;-77
2021/08/14 14:01:08;;;;;;;1999.90;999.90;;;28.00;1.00;;;;;;5015747;28;20165;-77
2021/08/14 14:03:34;;;;;;;1999.90;999.90;;;28.00;1.00;;;;;;5015174;28;20597;-77
2021/08/14 14:06:00;;;;;;;1999.90;999.90;;;28.10;1.00;;;;;;5015520;28;20456;-77
2021/08/14 14:08:25;;;;;;;1999.90;999.90;;;28.10;1.00;;;;;;5015381;28;20938;-77
2021/08/14 14:10:51;;;;;;;1999.90;999.90;;;28.20;1.00;;;;;;5015836;28;20272;-77
2021/08/14 14:13:17;;;;;;;1999.90;999.90;;;27.90;1.00;;;;;;5015929;28;20256;-77
2021/08/14 14:15:42;;;;;;;1999.90;999.90;;;27.90;1.00;;;;;;5033306;28;20165;-77
2021/08/14 14:18:08;;;;;;;1999.90;999.90;;;27.90;1.00;;;;;;5015693;28;20189;-77
2021/08/14 14:20:37;;;;;;;1999.90;999.90;;;27.90;1.00;;;;;;5033063;28;20599;-77
2021/08/14 14:23:03;;;;;;;1999.90;999.90;;;28.00;1.00;;;;;;5033253;28;20170;-77
2021/08/14 14:25:28;;;;;;;1999.90;999.90;;;28.10;1.00;;;;;;5015239;28;20583;-77
2021/08/14 14:27:54;;;;;;;1999.90;999.90;;;28.10;1.00;;;;;;5015215;28;20660;-77
2021/08/14 14:30:20;;;;;;;1999.90;999.90;;;28.10;1.00;;;;;;5015204;28;20706;-77
2021/08/14 14:32:45;;;;;;;1999.90;999.90;;;28.30;1.00;;;;;;5015190;28;20708;-77
2021/08/14 14:35:11;;;;;;;1999.90;999.90;;;28.30;1.00;;;;;;5032960;28;20176;-77
2021/08/14 14:37:38;;;;;;;1999.90;999.90;;;28.40;1.00;;;;;;5033044;28;20269;-77
2021/08/14 14:40:05;;;;;;;1999.90;999.90;;;28.30;1.00;;;;;;5032813;28;20864;-77
2021/08/14 14:42:31;;;;;;;1999.90;999.90;;;28.20;1.00;;;;;;5015310;28;20472;-78
2021/08/14 14:44:57;;;;;;;1999.90;999.90;;;28.40;1.00;;;;;;5033563;28;21017;-77
2021/08/14 14:47:23;;;;;;;1999.90;999.90;;;28.40;1.00;;;;;;5032990;28;20177;-77
2021/08/14 14:49:48;;;;;;;1999.90;999.90;;;28.40;1.00;;;;;;5033025;28;20166;-77
2021/08/14 14:52:14;;;;;;;1999.90;999.90;;;28.40;1.00;;;;;;5015551;28;20219;-77
2021/08/14 14:54:40;;;;;;;1999.90;999.90;;;28.30;1.00;;;;;;5015318;28;20180;-77
2021/08/14 14:57:05;;;;;;;1999.90;999.90;;;28.20;1.00;;;;;;5033006;28;20182;-77
2021/08/14 14:59:31;;;;;;;1999.90;999.90;;;28.20;1.00;;;;;;5015435;28;20205;-77
2021/08/14 15:01:57;;;;;;;1999.90;999.90;;;28.20;1.00;;;;;;5033284;28;20400;-77
2021/08/14 15:04:23;;;;;;;1999.90;999.90;;;28.20;1.00;;;;;;5032943;28;20513;-77
2021/08/14 15:06:48;;;;;;;1999.90;999.90;;;28.20;1.00;;;;;;5015632;28;20280;-77
2021/08/14 15:09:14;;;;;;;1999.90;999.90;;;28.00;1.00;;;;;;5033054;28;20196;-77
2021/08/14 15:11:40;;;;;;;1999.90;999.90;;;28.10;1.00;;;;;;5033407;28;20212;-78
2021/08/14 15:14:06;;;;;;;1999.90;999.90;;;28.00;1.00;;;;;;5036493;28;20427;-77
2021/08/14 15:16:31;;;;;;;1999.90;999.90;;;27.90;1.00;;;;;;5018730;28;20196;-77
2021/08/14 15:18:57;;;;;;;1999.90;999.90;;;28.00;1.00;;;;;;5036478;28;20165;-77
2021/08/14 15:21:23;;;;;;;1999.90;999.90;;;28.00;1.00;;;;;;5018666;28;20169;-77
2021/08/14 15:23:48;;;;;;;1999.90;999.90;;;28.10;1.00;;;;;;5036662;28;20625;-77
2021/08/14 15:26:14;;;;;;;1999.90;999.90;;;28.10;1.00;;;;;;5018756;28;20173;-77
2021/08/14 15:28:40;;;;;;;1999.90;999.90;;;28.00;1.00;;;;;;5036547;28;20220;-77
2021/08/14 15:31:07;;;;;;;1999.90;999.90;;;28.00;1.00;;;;;;5036197;28;20165;-77
2021/08/14 15:33:33;;;;;;;1999.90;999.90;;;28.00;1.00;;;;;;5036279;28;20566;-77
2021/08/14 15:36:02;;;;;;;1999.90;999.90;;;28.10;1.00;;;;;;5036026;28;20493;-77
2021/08/14 15:38:27;;;;;;;1999.90;999.90;;;28.40;1.00;;;;;;5036175;28;20419;-77
2021/08/14 15:40:53;;;;;;;1999.90;999.90;;;28.50;1.00;;;;;;5036236;28;20400;-77
2021/08/14 15:43:19;;;;;;;1999.90;999.90;;;28.80;1.00;;;;;;5089075;22;20297;-84
2021/08/14 15:45:47;;;;;;;1999.90;999.90;;;28.80;1.00;;;;;;5060926;28;20189;-85
2021/08/14 15:48:25;;;;;;;1999.90;999.90;;;29.10;1.00;;;;;;5060626;28;20188;-84
2021/08/14 15:50:51;;;;;;;1999.90;999.90;;;29.10;1.00;;;;;;5043209;28;20411;-85
2021/08/14 15:53:17;;;;;;;1999.90;999.90;;;29.10;1.00;;;;;;5042765;28;20418;-85
2021/08/14 15:55:43;;;;;;;1999.90;999.90;;;29.50;1.00;;;;;;5043102;28;20203;-85
2021/08/14 15:58:08;;;;;;;1999.90;999.90;;;29.80;1.00;;;;;;5061472;28;20929;-86
2021/08/14 16:00:37;;;;;;;1999.90;999.90;;;30.10;1.00;;;;;;5061158;28;20187;-85